createdAt,value
2018-11-05T00:00:12.301Z,10.58
2018-11-05T00:00:52.754Z,10.51
2018-11-05T00:01:33.090Z,10.52
2018-11-05T00:02:13.647Z,10.47
2018-11-05T00:02:53.938Z,10.42
2018-11-05T00:03:34.425Z,10.46
2018-11-05T00:04:14.797Z,10.49
2018-11-05T00:04:55.268Z,10.54
2018-11-05T00:06:42.561Z,10.49
2018-11-05T00:07:23.318Z,10.49
2018-11-05T00:08:03.429Z,10.55
2018-11-05T00:08:43.838Z,10.46
2018-11-05T00:09:24.389Z,10.55
2018-11-05T00:10:04.687Z,10.49
2018-11-05T00:10:45.058Z,10.57
2018-11-05T00:11:25.483Z,10.57
2018-11-05T00:12:05.837Z,10.62
2018-11-05T00:12:46.415Z,10.52
2018-11-05T00:13:26.892Z,10.57
2018-11-05T00:14:07.210Z,10.62
2018-11-05T00:14:47.656Z,10.57
2018-11-05T00:15:28.055Z,10.62
2018-11-05T00:16:08.441Z,10.69
2018-11-05T00:16:49.000Z,10.68
2018-11-05T00:17:30.151Z,10.65
2018-11-05T00:18:10.422Z,10.66
2018-11-05T00:18:50.923Z,10.69
2018-11-05T00:19:31.224Z,10.66
2018-11-05T00:20:11.650Z,10.55
2018-11-05T00:20:52.076Z,10.65
2018-11-05T00:21:32.705Z,10.57
2018-11-05T00:22:13.169Z,10.69
2018-11-05T00:22:53.504Z,10.66
2018-11-05T00:23:33.980Z,10.65
2018-11-05T00:24:14.290Z,10.65
2018-11-05T00:24:54.699Z,10.66
2018-11-05T00:25:35.099Z,10.62
2018-11-05T00:26:15.620Z,10.58
2018-11-05T00:26:55.997Z,10.62
2018-11-05T00:27:36.355Z,10.69
2018-11-05T00:28:16.765Z,10.66
2018-11-05T00:28:57.161Z,10.65
2018-11-05T00:29:38.037Z,10.68
2018-11-05T00:30:18.095Z,10.68
2018-11-05T00:30:58.511Z,10.68
2018-11-05T00:31:39.153Z,10.73
2018-11-05T00:32:19.529Z,10.73
2018-11-05T00:33:00.053Z,10.69
2018-11-05T00:33:40.436Z,10.75
2018-11-05T00:34:21.095Z,10.75
2018-11-05T00:35:01.516Z,10.7
2018-11-05T00:35:42.863Z,10.84
2018-11-05T00:36:22.884Z,10.78
2018-11-05T00:37:03.381Z,10.88
2018-11-05T00:37:44.069Z,10.87
2018-11-05T00:38:24.412Z,10.87
2018-11-05T00:39:04.935Z,10.88
2018-11-05T00:39:45.375Z,10.78
2018-11-05T00:40:25.710Z,10.7
2018-11-05T00:41:06.170Z,10.69
2018-11-05T00:41:46.552Z,10.78
2018-11-05T00:42:27.027Z,10.73
2018-11-05T00:43:07.341Z,10.73
2018-11-05T00:43:47.843Z,10.72
2018-11-05T00:44:28.194Z,10.72
2018-11-05T00:45:08.587Z,10.65
2018-11-05T00:45:49.133Z,10.66
2018-11-05T00:46:29.390Z,10.69
2018-11-05T00:47:09.814Z,10.65
2018-11-05T00:47:50.451Z,10.7
2018-11-05T00:48:30.883Z,10.68
2018-11-05T00:49:11.336Z,10.68
2018-11-05T00:49:51.698Z,10.55
2018-11-05T00:50:32.078Z,10.58
2018-11-05T00:51:12.547Z,10.66
2018-11-05T00:51:52.931Z,10.65
2018-11-05T00:52:33.397Z,10.66
2018-11-05T00:53:13.877Z,10.63
2018-11-05T00:53:54.261Z,10.58
2018-11-05T00:54:34.668Z,10.54
2018-11-05T00:55:15.102Z,10.62
2018-11-05T00:55:55.541Z,10.58
2018-11-05T00:56:35.979Z,10.57
2018-11-05T00:57:16.357Z,10.55
2018-11-05T00:57:56.808Z,10.66
2018-11-05T00:58:37.383Z,10.63
2018-11-05T00:59:17.729Z,10.54
2018-11-05T00:59:58.198Z,10.57
2018-11-05T01:00:38.916Z,10.6
2018-11-05T01:01:19.060Z,10.58
2018-11-05T01:01:59.412Z,10.57
2018-11-05T01:02:40.580Z,10.66
2018-11-05T01:03:21.004Z,10.54
2018-11-05T01:04:01.507Z,10.57
2018-11-05T01:04:41.900Z,10.55
2018-11-05T01:05:22.319Z,10.55
2018-11-05T01:06:02.783Z,10.52
2018-11-05T01:06:43.220Z,10.52
2018-11-05T01:08:58.844Z,10.52
2018-11-05T01:09:37.728Z,10.6
2018-11-05T01:10:18.157Z,10.55
2018-11-05T01:10:59.198Z,10.62
2018-11-05T01:11:39.217Z,10.68
2018-11-05T01:12:19.499Z,10.72
2018-11-05T01:12:59.920Z,10.73
2018-11-05T01:13:40.440Z,10.69
2018-11-05T01:14:20.809Z,10.72
2018-11-05T01:15:01.178Z,10.7
2018-11-05T01:15:41.609Z,10.69
2018-11-05T01:16:22.025Z,10.69
2018-11-05T01:17:02.558Z,10.68
2018-11-05T01:17:42.914Z,10.6
2018-11-05T01:18:23.328Z,10.51
2018-11-05T01:19:03.784Z,10.52
2018-11-05T01:19:44.148Z,10.42
2018-11-05T01:20:24.636Z,10.52
2018-11-05T01:21:05.001Z,10.46
2018-11-05T01:21:45.458Z,10.44
2018-11-05T01:22:25.869Z,10.44
2018-11-05T01:23:06.179Z,10.44
2018-11-05T01:23:46.607Z,10.42
2018-11-05T01:24:27.053Z,10.47
2018-11-05T01:25:07.462Z,10.46
2018-11-05T01:25:47.767Z,10.51
2018-11-05T01:26:28.149Z,10.44
2018-11-05T01:27:08.591Z,10.44
2018-11-05T01:27:49.014Z,10.52
2018-11-05T01:28:29.419Z,10.42
2018-11-05T01:29:09.789Z,10.57
2018-11-05T01:29:50.232Z,10.54
2018-11-05T01:30:30.690Z,10.42
2018-11-05T01:31:11.040Z,10.47
2018-11-05T01:31:51.555Z,10.49
2018-11-05T01:32:31.855Z,10.52
2018-11-05T01:33:12.268Z,10.66
2018-11-05T01:33:52.685Z,10.6
2018-11-05T01:34:33.081Z,10.57
2018-11-05T01:35:13.913Z,10.68
2018-11-05T01:35:53.915Z,10.78
2018-11-05T01:36:34.348Z,10.69
2018-11-05T01:37:15.021Z,10.73
2018-11-05T01:37:55.461Z,10.73
2018-11-05T01:38:35.673Z,10.78
2018-11-05T01:39:16.085Z,10.81
2018-11-05T01:39:56.489Z,10.91
2018-11-05T01:40:36.892Z,10.86
2018-11-05T01:41:17.284Z,10.93
2018-11-05T01:41:57.756Z,10.83
2018-11-05T01:42:38.144Z,10.87
2018-11-05T01:43:18.566Z,10.83
2018-11-05T01:43:58.930Z,10.72
2018-11-05T01:44:39.326Z,10.86
2018-11-05T01:45:19.743Z,10.68
2018-11-05T01:46:00.177Z,10.69
2018-11-05T01:46:40.563Z,10.76
2018-11-05T01:47:20.890Z,10.75
2018-11-05T01:48:01.290Z,10.87
2018-11-05T01:48:41.844Z,10.88
2018-11-05T01:49:22.252Z,10.88
2018-11-05T01:50:03.053Z,10.95
2018-11-05T01:50:43.388Z,10.87
2018-11-05T01:51:23.760Z,10.93
2018-11-05T01:52:04.143Z,10.83
2018-11-05T01:52:44.873Z,10.88
2018-11-05T01:53:25.245Z,10.93
2018-11-05T01:54:05.410Z,10.88
2018-11-05T01:54:45.819Z,10.88
2018-11-05T01:55:26.170Z,10.88
2018-11-05T01:56:06.644Z,10.88
2018-11-05T01:56:46.997Z,10.98
2018-11-05T01:57:27.493Z,10.94
2018-11-05T01:58:07.827Z,11.05
2018-11-05T01:58:48.398Z,11.11
2018-11-05T01:59:28.673Z,11.12
2018-11-05T02:00:09.271Z,11.11
2018-11-05T02:00:49.599Z,11.09
2018-11-05T02:01:29.987Z,11.06
2018-11-05T02:02:10.372Z,11.03
2018-11-05T02:02:50.776Z,11.09
2018-11-05T02:03:31.225Z,10.99
2018-11-05T02:04:11.590Z,10.93
2018-11-05T02:04:52.002Z,11.02
2018-11-05T02:05:32.389Z,10.95
2018-11-05T02:06:12.817Z,11.02
2018-11-05T02:06:53.159Z,10.95
2018-11-05T02:08:30.399Z,10.88
2018-11-05T02:09:11.578Z,10.88
2018-11-05T02:09:51.849Z,10.87
2018-11-05T02:10:32.467Z,10.98
2018-11-05T02:11:12.662Z,10.95
2018-11-05T02:11:53.111Z,10.95
2018-11-05T02:13:50.483Z,11.12
2018-11-05T02:14:30.982Z,11.06
2018-11-05T02:15:11.409Z,11.11
2018-11-05T02:15:51.828Z,11.09
2018-11-05T02:16:32.133Z,11.03
2018-11-05T02:17:12.737Z,10.95
2018-11-05T02:17:52.950Z,11.05
2018-11-05T02:18:33.319Z,10.98
2018-11-05T02:19:13.706Z,10.99
2018-11-05T02:19:54.094Z,11.05
2018-11-05T02:20:34.607Z,11.08
2018-11-05T02:21:14.905Z,11.05
2018-11-05T02:21:55.309Z,11.02
2018-11-05T02:22:35.726Z,11.02
2018-11-05T02:23:16.140Z,11.02
2018-11-05T02:23:56.709Z,11.05
2018-11-05T02:24:37.058Z,11.02
2018-11-05T02:25:17.423Z,11.02
2018-11-05T02:25:57.938Z,10.98
2018-11-05T02:26:38.258Z,10.99
2018-11-05T02:27:18.728Z,10.99
2018-11-05T02:27:59.044Z,11.02
2018-11-05T02:28:39.875Z,11.08
2018-11-05T02:29:20.215Z,11.06
2018-11-05T02:30:00.635Z,11.09
2018-11-05T02:30:41.102Z,11.06
2018-11-05T02:31:21.484Z,11.03
2018-11-05T02:32:01.916Z,11.05
2018-11-05T02:32:42.262Z,11.03
2018-11-05T02:33:22.773Z,11.11
2018-11-05T02:34:03.086Z,11.12
2018-11-05T02:34:43.553Z,11.05
2018-11-05T02:35:24.044Z,11.11
2018-11-05T02:36:04.485Z,11.13
2018-11-05T02:36:44.934Z,11.17
2018-11-05T02:37:25.322Z,11.16
2018-11-05T02:38:05.655Z,11.19
2018-11-05T02:38:46.107Z,11.19
2018-11-05T02:39:26.469Z,11.23
2018-11-05T02:40:06.863Z,11.19
2018-11-05T02:40:47.284Z,11.13
2018-11-05T02:41:27.637Z,11.19
2018-11-05T02:42:08.064Z,11.13
2018-11-05T02:42:48.431Z,11.12
2018-11-05T02:43:28.806Z,11.13
2018-11-05T02:44:09.210Z,11.2
2018-11-05T02:44:49.624Z,11.11
2018-11-05T02:45:30.017Z,11.06
2018-11-05T02:46:10.537Z,11.09
2018-11-05T02:46:50.959Z,11.11
2018-11-05T02:47:31.397Z,11.03
2018-11-05T02:48:11.821Z,10.99
2018-11-05T02:48:52.432Z,11.09
2018-11-05T02:49:32.712Z,11.09
2018-11-05T02:50:13.033Z,11.01
2018-11-05T02:50:53.482Z,10.95
2018-11-05T02:51:35.393Z,11.05
2018-11-05T02:52:15.858Z,11.13
2018-11-05T02:52:56.214Z,11.08
2018-11-05T02:53:36.709Z,11.13
2018-11-05T02:54:17.063Z,11.16
2018-11-05T02:54:57.511Z,11.2
2018-11-05T02:55:37.976Z,11.26
2018-11-05T02:56:18.303Z,11.26
2018-11-05T02:56:58.983Z,11.38
2018-11-05T02:57:39.478Z,11.35
2018-11-05T02:58:20.176Z,11.19
2018-11-05T02:59:00.279Z,11.26
2018-11-05T02:59:40.680Z,11.2
2018-11-05T03:00:21.053Z,11.21
2018-11-05T03:01:01.608Z,11.13
2018-11-05T03:01:41.868Z,11.2
2018-11-05T03:02:22.245Z,11.19
2018-11-05T03:03:02.716Z,11.19
2018-11-05T03:03:43.080Z,11.16
2018-11-05T03:04:23.476Z,11.12
2018-11-05T03:05:03.885Z,11.17
2018-11-05T03:05:44.296Z,11.21
2018-11-05T03:06:24.667Z,11.19
2018-11-05T03:08:04.641Z,11.16
2018-11-05T03:08:42.467Z,11.16
2018-11-05T03:09:22.856Z,11.21
2018-11-05T03:10:03.300Z,11.16
2018-11-05T03:10:43.662Z,11.19
2018-11-05T03:11:24.086Z,11.01
2018-11-05T03:12:04.476Z,11.11
2018-11-05T03:12:44.916Z,10.98
2018-11-05T03:13:25.239Z,10.99
2018-11-05T03:14:05.642Z,10.9
2018-11-05T03:14:46.048Z,10.87
2018-11-05T03:15:26.430Z,10.86
2018-11-05T03:16:06.907Z,10.94
2018-11-05T03:16:47.278Z,10.88
2018-11-05T03:17:27.702Z,10.81
2018-11-05T03:18:08.068Z,10.91
2018-11-05T03:18:48.462Z,10.93
2018-11-05T03:19:28.863Z,10.93
2018-11-05T03:20:09.248Z,10.88
2018-11-05T03:20:49.688Z,10.88
2018-11-05T03:21:30.093Z,10.95
2018-11-05T03:22:10.492Z,10.98
2018-11-05T03:22:50.896Z,11.01
2018-11-05T03:23:31.362Z,10.94
2018-11-05T03:24:11.693Z,10.93
2018-11-05T03:24:52.160Z,10.99
2018-11-05T03:25:32.576Z,10.93
2018-11-05T03:26:12.939Z,10.99
2018-11-05T03:26:53.350Z,10.98
2018-11-05T03:27:33.787Z,11.05
2018-11-05T03:28:14.217Z,11.08
2018-11-05T03:28:54.583Z,11.06
2018-11-05T03:29:35.026Z,11.08
2018-11-05T03:30:15.394Z,11.08
2018-11-05T03:32:08.933Z,11.02
2018-11-05T03:32:49.466Z,11.06
2018-11-05T03:33:29.853Z,11.06
2018-11-05T03:34:10.323Z,11.09
2018-11-05T03:34:50.701Z,11.11
2018-11-05T03:35:31.074Z,11.06
2018-11-05T03:36:11.413Z,11.03
2018-11-05T03:36:51.934Z,10.93
2018-11-05T03:37:32.272Z,10.98
2018-11-05T03:38:12.667Z,10.91
2018-11-05T03:39:49.915Z,10.91
2018-11-05T03:40:31.002Z,10.91
2018-11-05T03:41:11.391Z,10.86
2018-11-05T03:41:51.798Z,10.87
2018-11-05T03:42:32.188Z,10.87
2018-11-05T03:43:12.699Z,10.91
2018-11-05T03:43:53.037Z,10.81
2018-11-05T03:44:33.432Z,10.91
2018-11-05T03:45:13.789Z,10.9
2018-11-05T03:45:54.185Z,10.87
2018-11-05T03:46:34.633Z,10.81
2018-11-05T03:47:15.155Z,10.86
2018-11-05T03:47:55.410Z,10.76
2018-11-05T03:48:35.831Z,10.72
2018-11-05T03:49:16.396Z,10.73
2018-11-05T03:49:56.719Z,10.78
2018-11-05T03:50:37.136Z,10.8
2018-11-05T03:51:17.480Z,10.72
2018-11-05T03:51:57.872Z,10.69
2018-11-05T03:52:38.369Z,10.7
2018-11-05T03:53:18.651Z,10.7
2018-11-05T03:53:59.072Z,10.72
2018-11-05T03:54:39.506Z,10.68
2018-11-05T03:55:19.914Z,10.7
2018-11-05T03:56:00.409Z,10.7
2018-11-05T03:56:40.797Z,10.68
2018-11-05T03:57:21.205Z,10.7
2018-11-05T03:58:01.762Z,10.66
2018-11-05T03:58:41.990Z,10.66
2018-11-05T03:59:22.424Z,10.72
2018-11-05T04:00:02.838Z,10.69
2018-11-05T04:00:43.174Z,10.72
2018-11-05T04:01:23.987Z,10.75
2018-11-05T04:02:04.534Z,10.66
2018-11-05T04:02:44.927Z,10.7
2018-11-05T04:03:25.426Z,10.7
2018-11-05T04:04:05.775Z,10.68
2018-11-05T04:04:46.216Z,10.63
2018-11-05T04:05:26.577Z,10.72
2018-11-05T04:06:07.010Z,10.7
2018-11-05T04:06:47.409Z,10.72
2018-11-05T04:07:27.859Z,10.66
2018-11-05T04:08:08.381Z,10.69
2018-11-05T04:08:48.823Z,10.81
2018-11-05T04:09:29.184Z,10.8
2018-11-05T04:10:09.627Z,10.9
2018-11-05T04:10:50.035Z,10.88
2018-11-05T04:11:30.426Z,10.93
2018-11-05T04:12:10.873Z,10.88
2018-11-05T04:12:51.168Z,10.94
2018-11-05T04:14:43.980Z,10.88
2018-11-05T04:15:24.325Z,10.93
2018-11-05T04:16:04.620Z,10.9
2018-11-05T04:16:44.988Z,10.91
2018-11-05T04:17:25.399Z,10.91
2018-11-05T04:18:05.696Z,10.9
2018-11-05T04:18:46.133Z,10.94
2018-11-05T04:19:26.566Z,10.93
2018-11-05T04:20:06.897Z,10.99
2018-11-05T04:20:47.274Z,10.88
2018-11-05T04:21:27.899Z,10.87
2018-11-05T04:22:08.242Z,10.84
2018-11-05T04:22:48.621Z,10.84
2018-11-05T04:23:29.163Z,10.86
2018-11-05T04:24:09.542Z,10.9
2018-11-05T04:24:49.992Z,10.93
2018-11-05T04:25:30.455Z,10.9
2018-11-05T04:26:10.800Z,10.81
2018-11-05T04:26:51.362Z,10.9
2018-11-05T05:07:39.538Z,10.13
2018-11-05T05:08:29.612Z,10.09
2018-11-05T05:12:57.324Z,9.96
2018-11-05T05:14:55.082Z,9.91
2018-11-05T05:15:59.591Z,9.83
2018-11-05T05:17:04.896Z,9.8
2018-11-05T05:17:57.746Z,9.78
2018-11-05T05:20:16.587Z,9.95
2018-11-05T05:21:10.364Z,9.96
2018-11-05T05:22:04.474Z,10.04
2018-11-05T05:22:56.950Z,9.98
2018-11-05T05:23:50.991Z,9.93
2018-11-05T05:24:43.675Z,10.02
2018-11-05T05:25:47.205Z,10.06
2018-11-05T05:26:39.895Z,9.99
2018-11-05T05:27:31.890Z,10.04
2018-11-05T05:28:24.336Z,10.07
2018-11-05T05:29:16.815Z,10.16
2018-11-05T05:30:09.223Z,10.17
2018-11-05T05:31:02.251Z,10.14
2018-11-05T05:31:54.468Z,10.16
2018-11-05T05:32:46.604Z,10.2
2018-11-05T05:33:39.432Z,10.2
2018-11-05T05:34:31.148Z,10.24
2018-11-05T05:35:24.514Z,10.22
2018-11-05T05:36:17.034Z,10.25
2018-11-05T05:37:09.640Z,10.22
2018-11-05T05:38:02.811Z,10.24
2018-11-05T05:38:55.289Z,10.28
2018-11-05T05:39:47.698Z,10.22
2018-11-05T05:40:40.496Z,10.29
2018-11-05T05:41:33.924Z,10.32
2018-11-05T05:42:26.394Z,10.31
2018-11-05T05:43:17.870Z,10.35
2018-11-05T05:44:10.441Z,10.29
2018-11-05T05:45:03.360Z,10.34
2018-11-05T05:45:55.370Z,10.34
2018-11-05T05:46:48.938Z,10.43
2018-11-05T05:47:41.089Z,10.35
2018-11-05T05:48:33.398Z,10.31
2018-11-05T05:49:25.469Z,10.35
2018-11-05T05:50:18.070Z,10.38
2018-11-05T05:51:10.397Z,10.31
2018-11-05T05:52:03.018Z,10.34
2018-11-05T05:52:55.458Z,10.35
2018-11-05T05:53:47.925Z,10.32
2018-11-05T05:54:40.847Z,10.39
2018-11-05T05:55:33.724Z,10.38
2018-11-05T05:56:26.463Z,10.39
2018-11-05T05:57:21.210Z,10.42
2018-11-05T05:58:16.749Z,10.49
2018-11-05T05:59:09.429Z,10.47
2018-11-05T06:00:02.928Z,10.49
2018-11-05T06:00:55.934Z,10.52
2018-11-05T06:01:48.424Z,10.58
2018-11-05T06:02:40.530Z,10.6
2018-11-05T06:03:33.620Z,10.51
2018-11-05T06:04:28.501Z,10.51
2018-11-05T06:05:21.662Z,10.62
2018-11-05T06:06:13.573Z,10.65
2018-11-05T06:07:05.900Z,10.69
2018-11-05T06:07:57.972Z,10.69
2018-11-05T06:08:51.500Z,10.75
2018-11-05T06:09:45.559Z,10.88
2018-11-05T06:10:36.796Z,10.86
2018-11-05T06:11:17.804Z,11.01
2018-11-05T06:11:58.619Z,11.01
2018-11-05T06:12:39.512Z,11.03
2018-11-05T06:13:20.600Z,11.02
2018-11-05T06:14:01.691Z,11.11
2018-11-05T06:14:43.421Z,10.99
2018-11-05T06:15:23.913Z,11.06
2018-11-05T06:16:04.753Z,11.01
2018-11-05T06:16:45.394Z,10.95
2018-11-05T06:17:25.807Z,11.08
2018-11-05T06:18:08.022Z,10.95
2018-11-05T06:19:59.033Z,10.98
2018-11-05T06:20:52.767Z,11.03
2018-11-05T06:21:48.108Z,11.05
2018-11-05T06:22:43.689Z,11.13
2018-11-05T06:23:36.594Z,11.17
2018-11-05T06:24:29.346Z,11.19
2018-11-05T06:25:23.016Z,11.2
2018-11-05T06:26:18.318Z,11.08
2018-11-05T06:27:20.210Z,11.17
2018-11-05T06:28:16.328Z,11.21
2018-11-05T06:29:11.696Z,11.19
2018-11-05T06:30:04.753Z,11.26
2018-11-05T06:31:01.133Z,11.27
2018-11-05T06:31:54.013Z,11.38
2018-11-05T06:32:49.445Z,11.41
2018-11-05T06:33:42.623Z,11.42
2018-11-05T06:34:41.017Z,11.46
2018-11-05T06:35:36.053Z,11.44
2018-11-05T06:36:31.129Z,11.51
2018-11-05T06:37:25.329Z,11.53
2018-11-05T06:38:17.507Z,11.57
2018-11-05T06:39:15.922Z,11.62
2018-11-05T06:40:09.127Z,11.67
2018-11-05T06:41:03.576Z,11.64
2018-11-05T06:42:00.829Z,11.75
2018-11-05T06:42:55.483Z,11.79
2018-11-05T06:43:49.040Z,11.75
2018-11-05T06:44:42.905Z,11.82
2018-11-05T06:45:36.277Z,11.87
2018-11-05T06:46:34.030Z,11.81
2018-11-05T06:47:31.648Z,11.93
2018-11-05T06:48:32.023Z,11.97
2018-11-05T06:49:35.253Z,12
2018-11-05T06:50:31.510Z,11.97
2018-11-05T06:51:31.407Z,12.07
2018-11-05T06:52:28.010Z,12.12
2018-11-05T06:53:21.332Z,12.16
2018-11-05T06:54:16.487Z,12.13
2018-11-05T06:55:09.065Z,12.13
2018-11-05T06:56:01.503Z,12.31
2018-11-05T06:56:53.458Z,12.29
2018-11-05T06:57:45.856Z,12.29
2018-11-05T06:58:39.372Z,12.26
2018-11-05T06:59:31.577Z,12.31
2018-11-05T07:00:24.525Z,12.31
2018-11-05T07:02:24.181Z,12.34
2018-11-05T07:03:06.855Z,12.33
2018-11-05T07:03:47.291Z,12.3
2018-11-05T07:04:29.370Z,12.31
2018-11-05T07:05:13.410Z,12.37
2018-11-05T07:05:54.034Z,12.29
2018-11-05T07:06:35.600Z,12.33
2018-11-05T07:07:22.874Z,12.33
2018-11-05T07:08:06.965Z,12.48
2018-11-05T07:08:50.958Z,12.43
2018-11-05T07:09:31.573Z,12.51
2018-11-05T07:10:11.961Z,12.51
2018-11-05T07:10:54.938Z,12.46
2018-11-05T07:11:36.396Z,12.56
2018-11-05T07:12:23.723Z,12.46
2018-11-05T07:13:06.902Z,12.46
2018-11-05T07:13:50.872Z,12.44
2018-11-05T07:14:33.271Z,12.46
2018-11-05T07:15:15.643Z,12.43
2018-11-05T07:16:00.697Z,12.51
2018-11-05T07:16:44.880Z,12.44
2018-11-05T07:17:25.427Z,12.48
2018-11-05T07:18:08.265Z,12.51
2018-11-05T07:18:51.291Z,12.48
2018-11-05T07:19:39.949Z,12.56
2018-11-05T07:20:31.288Z,12.59
2018-11-05T07:21:13.753Z,12.56
2018-11-05T07:21:54.258Z,12.59
2018-11-05T07:22:38.397Z,12.59
2018-11-05T07:23:29.381Z,12.61
2018-11-05T07:24:12.902Z,12.62
2018-11-05T07:24:56.253Z,12.55
2018-11-05T07:25:40.688Z,12.59
2018-11-05T07:26:20.955Z,12.58
2018-11-05T07:27:01.409Z,12.56
2018-11-05T07:27:43.899Z,12.59
2018-11-05T07:28:27.042Z,12.55
2018-11-05T07:29:08.457Z,12.54
2018-11-05T07:29:50.221Z,12.62
2018-11-05T07:30:32.783Z,12.62
2018-11-05T07:31:21.071Z,12.63
2018-11-05T07:32:06.374Z,12.69
2018-11-05T07:32:48.913Z,12.7
2018-11-05T07:33:36.093Z,12.63
2018-11-05T07:34:19.312Z,12.74
2018-11-05T07:35:01.543Z,12.74
2018-11-05T07:35:43.742Z,12.76
2018-11-05T07:36:26.319Z,12.74
2018-11-05T07:37:09.825Z,12.7
2018-11-05T07:37:50.341Z,12.59
2018-11-05T07:38:30.739Z,12.74
2018-11-05T07:39:12.938Z,12.58
2018-11-05T07:39:54.113Z,12.59
2018-11-05T07:40:34.548Z,12.58
2018-11-05T07:41:15.279Z,12.54
2018-11-05T07:41:56.085Z,12.61
2018-11-05T07:42:36.607Z,12.49
2018-11-05T07:43:17.360Z,12.56
2018-11-05T07:43:57.753Z,12.59
2018-11-05T07:44:39.790Z,12.56
2018-11-05T07:45:20.331Z,12.66
2018-11-05T07:46:00.768Z,12.67
2018-11-05T07:46:41.304Z,12.74
2018-11-05T07:47:21.820Z,12.71
2018-11-05T07:48:02.234Z,12.77
2018-11-05T07:48:46.735Z,12.81
2018-11-05T07:49:27.076Z,12.77
2018-11-05T07:50:07.743Z,12.74
2018-11-05T07:50:50.033Z,12.84
2018-11-05T07:51:30.270Z,12.84
2018-11-05T07:52:11.704Z,12.91
2018-11-05T07:52:55.181Z,12.79
2018-11-05T07:53:37.423Z,12.77
2018-11-05T07:54:21.340Z,12.77
2018-11-05T07:55:02.029Z,12.79
2018-11-05T07:55:45.173Z,12.77
2018-11-05T07:56:29.905Z,12.81
2018-11-05T07:57:10.501Z,12.84
2018-11-05T07:57:52.669Z,12.81
2018-11-05T07:58:33.106Z,12.81
2018-11-05T07:59:16.334Z,12.92
2018-11-05T07:59:59.563Z,12.8
2018-11-05T08:00:48.423Z,12.8
2018-11-05T08:01:34.391Z,12.96
2018-11-05T08:02:16.076Z,12.96
2018-11-05T08:02:56.984Z,12.88
2018-11-05T08:03:37.296Z,12.91
2018-11-05T08:04:25.374Z,12.91
2018-11-05T08:05:06.282Z,12.92
2018-11-05T08:07:10.307Z,12.77
2018-11-05T08:10:42.035Z,12.8
2018-11-05T08:11:22.843Z,12.8
2018-11-05T08:12:03.455Z,12.8
2018-11-05T08:12:46.291Z,12.76
2018-11-05T08:13:27.001Z,12.8
2018-11-05T08:14:07.561Z,12.7
2018-11-05T08:14:48.080Z,12.7
2018-11-05T08:15:28.546Z,12.76
2018-11-05T08:16:09.132Z,12.73
2018-11-05T08:16:49.608Z,12.7
2018-11-05T08:17:30.693Z,12.79
2018-11-05T08:18:10.921Z,12.81
2018-11-05T08:18:52.662Z,12.71
2018-11-05T08:19:32.598Z,12.77
2018-11-05T08:20:13.658Z,12.81
2018-11-05T08:20:53.716Z,12.76
2018-11-05T08:21:33.993Z,12.7
2018-11-05T08:22:14.907Z,12.73
2018-11-05T08:22:55.754Z,12.7
2018-11-05T08:23:36.496Z,12.66
2018-11-05T08:24:18.408Z,12.62
2018-11-05T08:24:58.402Z,12.67
2018-11-05T08:25:38.885Z,12.77
2018-11-05T08:26:19.556Z,12.79
2018-11-05T08:26:59.996Z,12.74
2018-11-05T08:27:40.781Z,12.81
2018-11-05T08:28:21.311Z,12.81
2018-11-05T08:29:01.791Z,12.81
2018-11-05T08:29:42.997Z,12.76
2018-11-05T08:30:23.283Z,12.77
2018-11-05T08:31:03.745Z,12.73
2018-11-05T08:31:44.944Z,12.73
2018-11-05T08:32:26.350Z,12.62
2018-11-05T08:33:07.115Z,12.61
2018-11-05T08:33:48.818Z,12.62
2018-11-05T08:35:51.151Z,12.54
2018-11-05T08:40:15.567Z,12.41
2018-11-05T08:40:57.012Z,12.38
2018-11-05T08:41:37.699Z,12.37
2018-11-05T08:42:19.240Z,12.34
2018-11-05T08:42:59.578Z,12.31
2018-11-05T08:43:40.271Z,12.31
2018-11-05T08:44:20.926Z,12.33
2018-11-05T08:45:01.768Z,12.31
2018-11-05T08:45:43.868Z,12.36
2018-11-05T08:46:24.980Z,12.23
2018-11-05T08:47:06.055Z,12.25
2018-11-05T08:47:47.536Z,12.37
2018-11-05T08:48:28.096Z,12.37
2018-11-05T08:49:09.525Z,12.33
2018-11-05T08:49:50.437Z,12.36
2018-11-05T08:50:30.318Z,12.34
2018-11-05T08:51:11.758Z,12.33
2018-11-05T08:51:52.748Z,12.36
2018-11-05T08:52:33.548Z,12.4
2018-11-05T08:53:15.714Z,12.46
2018-11-05T08:53:56.939Z,12.4
2018-11-05T08:54:38.545Z,12.43
2018-11-05T08:55:21.592Z,12.43
2018-11-05T08:56:02.715Z,12.43
2018-11-05T08:56:49.048Z,12.44
2018-11-05T08:57:28.383Z,12.41
2018-11-05T08:58:09.535Z,12.46
2018-11-05T08:58:53.247Z,12.38
2018-11-05T08:59:33.996Z,12.48
2018-11-05T09:00:14.426Z,12.49
2018-11-05T09:00:54.983Z,12.44
2018-11-05T09:01:36.630Z,12.41
2018-11-05T09:02:19.357Z,12.46
2018-11-05T09:03:00.052Z,12.43
2018-11-05T09:03:40.705Z,12.48
2018-11-05T09:04:23.067Z,12.43
2018-11-05T09:05:03.786Z,12.41
2018-11-05T09:05:44.352Z,12.56
2018-11-05T09:06:25.379Z,12.59
2018-11-05T09:07:06.716Z,12.62
2018-11-05T09:07:47.743Z,12.74
2018-11-05T09:08:29.097Z,12.76
2018-11-05T09:09:09.679Z,12.77
2018-11-05T09:09:50.206Z,12.8
2018-11-05T09:10:30.801Z,12.77
2018-11-05T09:11:20.170Z,12.81
2018-11-05T09:12:05.451Z,12.92
2018-11-05T09:12:52.421Z,12.95
2018-11-05T09:13:33.266Z,13.06
2018-11-05T09:14:14.992Z,13.16
2018-11-05T09:14:59.209Z,13.13
2018-11-05T09:15:42.622Z,13.25
2018-11-05T09:16:26.266Z,13.22
2018-11-05T09:17:08.439Z,13.24
2018-11-05T09:17:50.111Z,13.31
2018-11-05T09:18:33.934Z,13.32
2018-11-05T09:19:21.895Z,13.35
2018-11-05T09:20:03.608Z,13.32
2018-11-05T09:20:50.683Z,13.43
2018-11-05T09:21:35.478Z,13.61
2018-11-05T09:22:21.401Z,13.44
2018-11-05T09:23:09.129Z,13.62
2018-11-05T09:23:56.662Z,13.61
2018-11-05T09:24:41.690Z,13.57
2018-11-05T09:25:21.544Z,13.61
2018-11-05T09:26:02.168Z,13.65
2018-11-05T09:26:44.095Z,13.57
2018-11-05T09:27:24.538Z,13.55
2018-11-05T09:28:05.528Z,13.48
2018-11-05T09:28:46.443Z,13.59
2018-11-05T09:29:27.484Z,13.61
2018-11-05T09:30:08.015Z,13.65
2018-11-05T09:30:48.796Z,13.68
2018-11-05T09:31:30.066Z,13.63
2018-11-05T09:32:11.082Z,13.71
2018-11-05T09:32:52.178Z,13.69
2018-11-05T09:33:33.733Z,13.63
2018-11-05T09:34:14.353Z,13.73
2018-11-05T09:34:55.946Z,13.87
2018-11-05T09:35:35.746Z,13.83
2018-11-05T09:36:16.611Z,13.87
2018-11-05T09:36:57.147Z,13.86
2018-11-05T09:37:37.635Z,13.96
2018-11-05T09:38:18.014Z,13.94
2018-11-05T09:38:58.457Z,14.01
2018-11-05T09:39:41.259Z,14.11
2018-11-05T09:40:21.693Z,14.11
2018-11-05T09:41:02.773Z,14.13
2018-11-05T09:41:43.746Z,14.12
2018-11-05T09:42:24.174Z,14.12
2018-11-05T09:43:04.824Z,14.27
2018-11-05T09:43:46.197Z,14.27
2018-11-05T09:44:28.154Z,14.35
2018-11-05T09:45:08.514Z,14.27
2018-11-05T09:45:50.122Z,14.26
2018-11-05T09:46:30.770Z,14.3
2018-11-05T09:47:12.423Z,14.23
2018-11-05T09:47:53.151Z,14.19
2018-11-05T09:48:33.775Z,14.13
2018-11-05T09:49:14.294Z,14.12
2018-11-05T09:49:55.360Z,14.09
2018-11-05T09:50:35.685Z,14.11
2018-11-05T09:51:16.203Z,14.08
2018-11-05T09:51:57.683Z,14.04
2018-11-05T09:52:39.028Z,14.09
2018-11-05T09:53:19.202Z,13.98
2018-11-05T09:54:00.560Z,14.13
2018-11-05T09:54:44.043Z,14.06
2018-11-05T09:55:25.586Z,14.05
2018-11-05T09:56:06.701Z,13.99
2018-11-05T09:56:47.455Z,13.96
2018-11-05T09:57:27.948Z,13.99
2018-11-05T09:58:08.603Z,14.01
2018-11-05T09:58:49.599Z,13.96
2018-11-05T09:59:31.546Z,13.94
2018-11-05T10:00:13.669Z,13.88
2018-11-05T10:00:54.451Z,13.87
2018-11-05T10:01:35.550Z,13.87
2018-11-05T10:02:16.456Z,13.9
2018-11-05T10:03:00.168Z,13.84
2018-11-05T10:03:43.601Z,13.68
2018-11-05T10:04:24.043Z,13.72
2018-11-05T10:05:06.548Z,13.72
2018-11-05T10:05:47.719Z,13.68
2018-11-05T10:06:28.315Z,13.62
2018-11-05T10:07:10.174Z,13.65
2018-11-05T10:07:50.778Z,13.68
2018-11-05T10:08:31.580Z,13.62
2018-11-05T10:09:12.544Z,13.68
2018-11-05T10:09:55.211Z,13.72
2018-11-05T10:10:35.080Z,13.76
2018-11-05T10:11:17.656Z,13.69
2018-11-05T10:11:59.553Z,13.75
2018-11-05T10:12:39.850Z,13.86
2018-11-05T10:13:20.892Z,13.91
2018-11-05T10:14:01.786Z,13.94
2018-11-05T10:14:43.108Z,14.17
2018-11-05T10:15:26.144Z,14.19
2018-11-05T10:16:06.467Z,14.3
2018-11-05T10:16:50.137Z,14.38
2018-11-05T10:17:31.688Z,14.31
2018-11-05T10:18:13.613Z,14.26
2018-11-05T10:18:54.481Z,14.29
2018-11-05T10:19:35.526Z,14.42
2018-11-05T10:20:16.497Z,14.39